Time;durP1;ratioP1;P1;durP2;ratioP2;P2;SDS_P1;SDS_P2;PMS_P1;PMS_P2;Temp;Humidity;BMP_temperature;BMP_pressure;BME280_temperature;BME280_humidity;BME280_pressure;Samples;Min_cycle;Max_cycle;Signal;HPM_P1;HPM_P2
2022/01/15 00:00:13;;;;;;;;;;;3.10;99.90;;;;;;4982144;28;20133;-70
2022/01/15 00:02:40;;;;;;;;;;;3.10;99.90;;;;;;4987335;28;20059;-70
2022/01/15 00:05:08;;;;;;;;;;;3.10;99.90;;;;;;4986384;28;20067;-71
2022/01/15 00:07:35;;;;;;;;;;;3.10;99.90;;;;;;4986056;28;21073;-70
2022/01/15 00:10:02;;;;;;;;;;;3.10;99.90;;;;;;4984878;28;21001;-71
2022/01/15 00:12:38;;;;;;;;;;;3.00;99.90;;;;;;4986294;28;20060;-71
2022/01/15 00:15:05;;;;;;;;;;;3.00;99.90;;;;;;4986618;28;20060;-70
2022/01/15 00:17:45;;;;;;;;;;;3.00;99.90;;;;;;4985982;28;20117;-70
2022/01/15 00:20:14;;;;;;;;;;;2.90;99.90;;;;;;4984443;28;20147;-70
2022/01/15 00:22:41;;;;;;;;;;;2.90;99.90;;;;;;4974782;28;21216;-69
2022/01/15 00:25:09;;;;;;;;;;;2.90;99.90;;;;;;4970189;28;20060;-70
2022/01/15 00:27:38;;;;;;;;;;;2.90;99.90;;;;;;4966290;28;21135;-71
2022/01/15 00:30:05;;;;;;;;;;;3.00;99.90;;;;;;4966108;28;20075;-70
2022/01/15 00:32:32;;;;;;;;;;;2.90;99.90;;;;;;4966506;28;20076;-71
2022/01/15 00:35:00;;;;;;;;;;;2.90;99.90;;;;;;4966936;28;20087;-69
2022/01/15 00:37:30;;;;;;;;;;;2.90;99.90;;;;;;4965250;28;20181;-68
2022/01/15 00:39:58;;;;;;;;;;;2.90;99.90;;;;;;4966203;28;20202;-70
2022/01/15 00:42:25;;;;;;;;;;;2.90;99.90;;;;;;4966815;28;20061;-68
2022/01/15 00:44:55;;;;;;;;;;;2.90;99.90;;;;;;4966311;28;21146;-69
2022/01/15 00:47:25;;;;;;;;;;;2.90;99.90;;;;;;4965535;28;20060;-71
2022/01/15 00:49:52;;;;;;;;;;;2.90;99.90;;;;;;4964962;28;20052;-71
2022/01/15 00:52:20;;;;;;;;;;;2.90;99.90;;;;;;4965188;28;20089;-72
2022/01/15 00:54:47;;;;;;;;;;;2.90;99.90;;;;;;4966281;28;20070;-71
2022/01/15 00:57:14;;;;;;;;;;;2.90;99.90;;;;;;4965733;28;21218;-72
2022/01/15 00:59:41;;;;;;;;;;;2.90;99.90;;;;;;4965335;28;20067;-70
2022/01/15 01:02:10;;;;;;;;;;;2.90;99.90;;;;;;4966620;28;20316;-71
2022/01/15 01:04:37;;;;;;;;;;;3.00;99.90;;;;;;4965742;28;20061;-71
2022/01/15 01:07:04;;;;;;;;;;;2.90;99.90;;;;;;4965161;28;20204;-71
2022/01/15 01:09:46;;;;;;;;;;;2.90;99.90;;;;;;4964712;28;20084;-71
2022/01/15 01:12:27;;;;;;;;;;;2.90;99.90;;;;;;4966250;28;20075;-69
2022/01/15 01:20:36;;;;;;;;;;;2.90;99.90;;;;;;4965322;28;20098;-71
2022/01/15 01:23:03;;;;;;;;;;;2.90;99.90;;;;;;4964219;28;20089;-71
2022/01/15 01:25:35;;;;;;;;;;;2.90;99.90;;;;;;4965348;28;21405;-69
2022/01/15 01:28:08;;;;;;;;;;;2.90;99.90;;;;;;4965173;28;20061;-70
2022/01/15 01:30:41;;;;;;;;;;;2.80;99.90;;;;;;4964905;28;20061;-71
2022/01/15 01:33:28;;;;;;;;;;;2.80;99.90;;;;;;4965927;28;20272;-70
2022/01/15 01:36:06;;;;;;;;;;;2.80;99.90;;;;;;4964973;28;20228;-71
2022/01/15 01:38:38;;;;;;;;;;;2.90;99.90;;;;;;4964552;28;20085;-71
2022/01/15 01:41:06;;;;;;;;;;;2.90;99.90;;;;;;4964887;28;20170;-71
2022/01/15 01:43:47;;;;;;;;;;;2.80;99.90;;;;;;4965328;28;20057;-70
2022/01/15 01:46:20;;;;;;;;;;;2.80;99.90;;;;;;4965098;28;20060;-71
2022/01/15 01:48:49;;;;;;;;;;;2.80;99.90;;;;;;4965167;28;21056;-70
2022/01/15 01:51:22;;;;;;;;;;;2.80;99.90;;;;;;4965019;28;20079;-71
2022/01/15 01:53:50;;;;;;;;;;;2.90;99.90;;;;;;4965194;28;20163;-70
2022/01/15 01:56:17;;;;;;;;;;;2.90;99.90;;;;;;4964913;28;21183;-71
2022/01/15 01:58:44;;;;;;;;;;;2.80;99.90;;;;;;4964332;28;20068;-70
2022/01/15 02:01:11;;;;;;;;;;;2.80;99.90;;;;;;4964964;28;20163;-71
2022/01/15 02:03:39;;;;;;;;;;;2.80;99.90;;;;;;4965294;28;20060;-70
2022/01/15 02:06:08;;;;;;;;;;;2.80;99.90;;;;;;4964640;28;20154;-71
2022/01/15 02:08:36;;;;;;;;;;;2.70;99.90;;;;;;4967955;28;20162;-69
2022/01/15 02:11:04;;;;;;;;;;;2.70;99.90;;;;;;4964900;28;20078;-70
2022/01/15 02:13:32;;;;;;;;;;;2.70;99.90;;;;;;4965736;28;20078;-71
2022/01/15 02:15:59;;;;;;;;;;;2.70;99.90;;;;;;4964677;28;20162;-70
2022/01/15 02:18:27;;;;;;;;;;;2.70;99.90;;;;;;4964764;28;21240;-71
2022/01/15 02:23:33;;;;;;;;;;;2.70;99.90;;;;;;4963641;28;20083;-71
2022/01/15 02:23:50;;;;;;;;;;;2.60;99.90;;;;;;4963736;28;20252;-69
2022/01/15 02:26:19;;;;;;;;;;;2.60;99.90;;;;;;4964768;28;20224;-69
2022/01/15 02:28:47;;;;;;;;;;;2.60;99.90;;;;;;4963272;28;20075;-69
2022/01/15 02:31:18;;;;;;;;;;;2.50;99.90;;;;;;4964386;28;20172;-71
2022/01/15 02:33:46;;;;;;;;;;;2.60;99.90;;;;;;4963766;28;20224;-70
2022/01/15 02:36:16;;;;;;;;;;;2.50;99.90;;;;;;4964708;28;20092;-71
2022/01/15 02:38:43;;;;;;;;;;;2.50;99.90;;;;;;4963725;28;20083;-69
2022/01/15 02:41:11;;;;;;;;;;;2.50;99.90;;;;;;4964339;28;20083;-71
2022/01/15 02:43:38;;;;;;;;;;;2.50;99.90;;;;;;4964326;28;20075;-70
2022/01/15 02:46:19;;;;;;;;;;;2.40;99.90;;;;;;4963996;28;20069;-71
2022/01/15 02:48:46;;;;;;;;;;;2.40;99.90;;;;;;4964257;28;20074;-70
2022/01/15 02:51:15;;;;;;;;;;;2.40;99.90;;;;;;4964289;28;20171;-70
2022/01/15 02:53:42;;;;;;;;;;;2.40;99.90;;;;;;4964381;28;20154;-71
2022/01/15 02:56:10;;;;;;;;;;;2.30;99.90;;;;;;4963908;28;20061;-71
2022/01/15 02:58:37;;;;;;;;;;;2.30;99.90;;;;;;4963678;28;20060;-71
2022/01/15 03:01:06;;;;;;;;;;;2.30;99.90;;;;;;4963460;28;20097;-69
2022/01/15 03:03:34;;;;;;;;;;;2.30;99.90;;;;;;4964588;28;20068;-71
2022/01/15 03:06:02;;;;;;;;;;;2.30;99.90;;;;;;4964185;28;20052;-69
2022/01/15 03:08:32;;;;;;;;;;;2.30;99.90;;;;;;4963939;28;21164;-71
2022/01/15 03:11:01;;;;;;;;;;;2.30;99.90;;;;;;4963307;28;20061;-71
2022/01/15 03:13:28;;;;;;;;;;;2.30;99.90;;;;;;4964002;28;20491;-70
2022/01/15 03:15:55;;;;;;;;;;;2.20;99.90;;;;;;4964433;28;20055;-71
2022/01/15 03:18:22;;;;;;;;;;;2.20;99.90;;;;;;4963956;28;20133;-71
2022/01/15 03:20:50;;;;;;;;;;;2.20;99.90;;;;;;4963244;28;20068;-69
2022/01/15 03:23:17;;;;;;;;;;;2.20;99.90;;;;;;4964380;28;20051;-69
2022/01/15 03:25:45;;;;;;;;;;;2.10;99.90;;;;;;4963811;28;20065;-70
2022/01/15 03:28:12;;;;;;;;;;;2.10;99.90;;;;;;4963308;28;20052;-71
2022/01/15 03:30:39;;;;;;;;;;;2.10;99.90;;;;;;4963150;28;20084;-72
2022/01/15 03:33:07;;;;;;;;;;;2.00;99.90;;;;;;4964382;28;20061;-71
2022/01/15 03:35:35;;;;;;;;;;;2.00;99.90;;;;;;4963931;28;20155;-71
2022/01/15 03:38:03;;;;;;;;;;;2.00;99.90;;;;;;4964576;28;21057;-69
2022/01/15 03:40:30;;;;;;;;;;;2.00;99.90;;;;;;4966199;28;21139;-71
2022/01/15 03:42:59;;;;;;;;;;;2.00;99.90;;;;;;4967990;28;20310;-71
2022/01/15 03:45:26;;;;;;;;;;;2.00;99.90;;;;;;4967508;28;21141;-71
2022/01/15 03:47:54;;;;;;;;;;;2.00;99.90;;;;;;4967262;28;20133;-70
2022/01/15 03:50:21;;;;;;;;;;;2.00;99.90;;;;;;4966319;28;20188;-70
2022/01/15 03:52:48;;;;;;;;;;;2.00;99.90;;;;;;4967073;28;20106;-70
2022/01/15 03:55:15;;;;;;;;;;;2.00;99.90;;;;;;4967154;28;21114;-70
2022/01/15 03:57:43;;;;;;;;;;;2.00;99.90;;;;;;4967101;28;20154;-71
2022/01/15 04:00:12;;;;;;;;;;;2.00;99.90;;;;;;4966944;28;20074;-70
2022/01/15 04:02:39;;;;;;;;;;;2.00;99.90;;;;;;4970490;28;21229;-71
2022/01/15 04:05:07;;;;;;;;;;;2.00;99.90;;;;;;4967172;28;20061;-71
2022/01/15 04:07:34;;;;;;;;;;;2.00;99.90;;;;;;4966920;28;20089;-69
2022/01/15 04:10:01;;;;;;;;;;;1.90;99.90;;;;;;4966997;28;20052;-70
2022/01/15 04:12:28;;;;;;;;;;;1.90;99.90;;;;;;4967267;28;20068;-69
2022/01/15 04:14:56;;;;;;;;;;;1.90;99.90;;;;;;4967682;28;20163;-70
2022/01/15 04:17:25;;;;;;;;;;;1.90;99.90;;;;;;4966670;28;21224;-71
2022/01/15 04:19:52;;;;;;;;;;;1.90;99.90;;;;;;4966427;28;20067;-71
2022/01/15 04:22:19;;;;;;;;;;;1.90;99.90;;;;;;4966685;28;20068;-70
2022/01/15 04:24:46;;;;;;;;;;;1.90;99.90;;;;;;4967232;28;21181;-71
2022/01/15 04:27:14;;;;;;;;;;;1.90;99.90;;;;;;4966873;28;20070;-71
2022/01/15 04:29:41;;;;;;;;;;;1.90;99.90;;;;;;4966197;28;20079;-69
2022/01/15 04:32:08;;;;;;;;;;;1.90;99.90;;;;;;4966926;28;20060;-71
2022/01/15 04:34:37;;;;;;;;;;;1.90;99.90;;;;;;4966750;28;20721;-70
2022/01/15 04:37:10;;;;;;;;;;;1.80;99.90;;;;;;4967326;28;20059;-72
2022/01/15 04:39:37;;;;;;;;;;;1.80;99.90;;;;;;4966383;28;20086;-71
2022/01/15 04:42:04;;;;;;;;;;;1.70;99.90;;;;;;4967440;28;21222;-70
2022/01/15 04:44:31;;;;;;;;;;;1.70;99.90;;;;;;4966793;28;20273;-70
2022/01/15 04:46:59;;;;;;;;;;;1.70;99.90;;;;;;4965890;28;20076;-70
2022/01/15 04:49:26;;;;;;;;;;;1.60;99.90;;;;;;4965494;28;20090;-71
2022/01/15 04:51:54;;;;;;;;;;;1.70;99.90;;;;;;4966967;28;20078;-70
2022/01/15 04:54:22;;;;;;;;;;;1.70;99.90;;;;;;4966966;28;20076;-71
2022/01/15 04:56:49;;;;;;;;;;;1.70;99.90;;;;;;4966013;28;20061;-71
2022/01/15 04:59:16;;;;;;;;;;;1.70;99.90;;;;;;4965358;28;21158;-70
2022/01/15 05:01:43;;;;;;;;;;;1.60;99.90;;;;;;4965837;28;20051;-71
2022/01/15 05:04:10;;;;;;;;;;;1.60;99.90;;;;;;4966081;28;20154;-71
2022/01/15 05:06:37;;;;;;;;;;;1.60;99.90;;;;;;4966217;28;20060;-71
2022/01/15 05:09:06;;;;;;;;;;;1.60;99.90;;;;;;4965301;28;21025;-71
2022/01/15 05:11:44;;;;;;;;;;;1.60;99.90;;;;;;4965996;28;20052;-71
2022/01/15 05:14:12;;;;;;;;;;;1.60;99.90;;;;;;4966220;28;20161;-71
2022/01/15 05:16:39;;;;;;;;;;;1.60;99.90;;;;;;4966381;28;21046;-71
2022/01/15 05:19:06;;;;;;;;;;;1.60;99.90;;;;;;4965951;28;20269;-71
2022/01/15 05:21:33;;;;;;;;;;;1.60;99.90;;;;;;4966437;28;20207;-70
2022/01/15 05:24:00;;;;;;;;;;;1.60;99.90;;;;;;4966529;28;20101;-71
2022/01/15 05:26:29;;;;;;;;;;;1.60;99.90;;;;;;4965398;28;20069;-71
2022/01/15 05:28:56;;;;;;;;;;;1.60;99.90;;;;;;4965289;28;20134;-69
2022/01/15 05:31:24;;;;;;;;;;;1.70;99.90;;;;;;4966110;28;20223;-70
2022/01/15 05:33:51;;;;;;;;;;;1.60;99.90;;;;;;4966397;28;20068;-71
2022/01/15 05:36:18;;;;;;;;;;;1.60;99.90;;;;;;4966218;28;20052;-70
2022/01/15 05:38:46;;;;;;;;;;;1.60;99.90;;;;;;4965459;28;20084;-69
2022/01/15 05:41:13;;;;;;;;;;;1.60;99.90;;;;;;4965822;28;20061;-70
2022/01/15 05:43:42;;;;;;;;;;;1.60;99.90;;;;;;4967832;28;21165;-70
2022/01/15 05:46:09;;;;;;;;;;;1.60;99.90;;;;;;4978689;28;20163;-70
2022/01/15 05:48:36;;;;;;;;;;;1.60;99.90;;;;;;4979940;28;20086;-70
2022/01/15 05:51:03;;;;;;;;;;;1.60;99.90;;;;;;4971732;28;20069;-71
2022/01/15 05:53:30;;;;;;;;;;;1.60;99.90;;;;;;4982050;28;20155;-70
2022/01/15 05:55:57;;;;;;;;;;;1.60;99.90;;;;;;4984836;28;20092;-69
2022/01/15 05:58:24;;;;;;;;;;;1.60;99.90;;;;;;4984619;28;20052;-70
2022/01/15 06:00:53;;;;;;;;;;;1.50;99.90;;;;;;4982877;28;20059;-69
2022/01/15 06:03:20;;;;;;;;;;;1.50;99.90;;;;;;4978153;28;20077;-70
2022/01/15 06:05:47;;;;;;;;;;;1.40;99.90;;;;;;4983923;28;20076;-71
2022/01/15 06:08:14;;;;;;;;;;;1.40;99.90;;;;;;4978706;28;20069;-70
2022/01/15 06:10:42;;;;;;;;;;;1.40;99.90;;;;;;4983495;28;20281;-70
2022/01/15 06:13:09;;;;;;;;;;;1.30;99.90;;;;;;4988951;28;21045;-70
2022/01/15 06:15:36;;;;;;;;;;;1.20;99.90;;;;;;4983838;28;20085;-71
2022/01/15 06:18:04;;;;;;;;;;;1.20;99.90;;;;;;4979859;28;20084;-70
2022/01/15 06:20:31;;;;;;;;;;;1.20;99.90;;;;;;4982972;28;20154;-69
2022/01/15 06:22:58;;;;;;;;;;;1.20;99.90;;;;;;4978454;28;20167;-70
2022/01/15 06:25:25;;;;;;;;;;;1.20;99.90;;;;;;4979732;28;20150;-70
2022/01/15 06:27:52;;;;;;;;;;;1.20;99.90;;;;;;4982864;28;20069;-71
2022/01/15 06:30:20;;;;;;;;;;;1.20;99.90;;;;;;4981775;28;20100;-70
2022/01/15 06:32:47;;;;;;;;;;;1.20;99.90;;;;;;4979369;28;20085;-69
2022/01/15 06:35:17;;;;;;;;;;;1.20;99.90;;;;;;4981941;28;20077;-70
2022/01/15 06:37:47;;;;;;;;;;;1.20;99.90;;;;;;4977491;28;20069;-69
2022/01/15 06:40:15;;;;;;;;;;;1.20;99.90;;;;;;4981782;28;20069;-70
2022/01/15 06:42:42;;;;;;;;;;;1.20;99.90;;;;;;4979797;28;20069;-70
2022/01/15 06:45:10;;;;;;;;;;;1.20;99.90;;;;;;4978296;28;20134;-70
2022/01/15 06:47:37;;;;;;;;;;;1.20;99.90;;;;;;4978822;28;20084;-70
2022/01/15 06:50:05;;;;;;;;;;;1.10;99.90;;;;;;4981059;28;20179;-70
2022/01/15 06:52:34;;;;;;;;;;;1.10;99.90;;;;;;4977081;28;21282;-70
2022/01/15 06:55:01;;;;;;;;;;;1.10;99.90;;;;;;4980923;28;20163;-70
2022/01/15 06:57:29;;;;;;;;;;;1.10;99.90;;;;;;4980097;28;20069;-70
2022/01/15 06:59:56;;;;;;;;;;;1.10;99.90;;;;;;4981053;28;20067;-70
2022/01/15 07:02:23;;;;;;;;;;;1.10;99.90;;;;;;4982363;28;20085;-70
2022/01/15 07:04:50;;;;;;;;;;;1.00;99.90;;;;;;4981836;28;20068;-70
2022/01/15 07:07:17;;;;;;;;;;;1.00;99.90;;;;;;4978743;28;20191;-70
2022/01/15 07:09:46;;;;;;;;;;;1.00;99.90;;;;;;4980672;28;20060;-70
2022/01/15 07:12:13;;;;;;;;;;;1.00;99.90;;;;;;4983225;28;20170;-70
2022/01/15 07:14:40;;;;;;;;;;;1.00;99.90;;;;;;4986189;28;20085;-70
2022/01/15 07:17:07;;;;;;;;;;;1.00;99.90;;;;;;4983150;28;20072;-70
2022/01/15 07:19:34;;;;;;;;;;;1.00;99.90;;;;;;4985604;28;20069;-70
2022/01/15 07:22:02;;;;;;;;;;;1.00;99.90;;;;;;4982218;28;20275;-69
2022/01/15 07:24:29;;;;;;;;;;;1.00;99.90;;;;;;4984594;28;20077;-70
2022/01/15 07:26:58;;;;;;;;;;;1.00;99.90;;;;;;4983171;28;20080;-69
2022/01/15 07:29:25;;;;;;;;;;;0.90;99.90;;;;;;4983529;28;20150;-70
2022/01/15 07:31:53;;;;;;;;;;;1.00;99.90;;;;;;4986018;28;20171;-70
2022/01/15 07:34:21;;;;;;;;;;;0.90;99.90;;;;;;4984657;28;20142;-71
2022/01/15 07:36:50;;;;;;;;;;;0.90;99.90;;;;;;4980214;28;20060;-72
2022/01/15 07:39:18;;;;;;;;;;;0.90;99.90;;;;;;4981035;28;20431;-72
2022/01/15 07:41:44;;;;;;;;;;;0.90;99.90;;;;;;4984766;28;20065;-71
2022/01/15 07:44:14;;;;;;;;;;;0.90;99.90;;;;;;4980261;28;20294;-71
2022/01/15 07:46:41;;;;;;;;;;;0.90;99.90;;;;;;4980922;28;20106;-71
2022/01/15 07:49:09;;;;;;;;;;;0.90;99.90;;;;;;4979938;28;20088;-71
2022/01/15 07:51:36;;;;;;;;;;;1.00;99.90;;;;;;4982790;28;20094;-71
2022/01/15 07:54:03;;;;;;;;;;;0.90;99.90;;;;;;4982266;28;20051;-71
2022/01/15 07:56:30;;;;;;;;;;;0.90;99.90;;;;;;4982648;28;20069;-71
2022/01/15 07:58:57;;;;;;;;;;;1.00;99.90;;;;;;4984915;28;20077;-71
2022/01/15 08:01:27;;;;;;;;;;;1.00;99.90;;;;;;4985051;28;20069;-71
2022/01/15 08:03:55;;;;;;;;;;;1.00;99.90;;;;;;4984911;28;20068;-71
2022/01/15 08:06:22;;;;;;;;;;;1.10;99.90;;;;;;4984796;28;20163;-71
2022/01/15 08:08:49;;;;;;;;;;;1.00;99.90;;;;;;4980407;28;20171;-75
2022/01/15 08:11:16;;;;;;;;;;;1.10;99.90;;;;;;4984831;28;20171;-73
2022/01/15 08:13:43;;;;;;;;;;;1.20;99.90;;;;;;4984843;28;21152;-74
2022/01/15 08:16:10;;;;;;;;;;;1.20;99.90;;;;;;4983447;28;20162;-72
2022/01/15 08:18:39;;;;;;;;;;;1.20;99.90;;;;;;4985743;28;20175;-68
2022/01/15 08:21:06;;;;;;;;;;;1.10;99.90;;;;;;4985812;28;20067;-78
2022/01/15 08:23:35;;;;;;;;;;;1.10;99.90;;;;;;4989607;28;20092;-79
2022/01/15 08:26:03;;;;;;;;;;;1.10;99.90;;;;;;4991202;28;20178;-70
2022/01/15 08:28:30;;;;;;;;;;;1.10;99.90;;;;;;4983046;28;21162;-70
2022/01/15 08:30:57;;;;;;;;;;;1.10;99.90;;;;;;4983183;28;20076;-71
2022/01/15 08:33:24;;;;;;;;;;;1.10;99.90;;;;;;4986726;28;20229;-70
2022/01/15 08:35:54;;;;;;;;;;;1.20;99.90;;;;;;4985872;28;20121;-69
2022/01/15 08:38:21;;;;;;;;;;;1.20;99.90;;;;;;4983392;28;20061;-70
2022/01/15 08:40:48;;;;;;;;;;;1.20;99.90;;;;;;4985175;28;21118;-71
2022/01/15 08:43:15;;;;;;;;;;;1.10;99.90;;;;;;4986352;28;21061;-70
2022/01/15 08:45:43;;;;;;;;;;;1.10;99.90;;;;;;4985110;28;20061;-71
2022/01/15 08:48:11;;;;;;;;;;;1.10;99.90;;;;;;4985651;28;21048;-71
2022/01/15 08:50:38;;;;;;;;;;;1.00;99.90;;;;;;4984361;28;20058;-71
2022/01/15 08:53:07;;;;;;;;;;;1.00;99.90;;;;;;4985759;28;20060;-70
2022/01/15 08:55:35;;;;;;;;;;;1.00;99.90;;;;;;4985547;28;20060;-71
2022/01/15 08:58:02;;;;;;;;;;;1.00;99.90;;;;;;4984732;28;20077;-70
2022/01/15 09:00:30;;;;;;;;;;;1.00;99.90;;;;;;4983862;28;20069;-70
2022/01/15 09:02:57;;;;;;;;;;;1.00;99.90;;;;;;4984926;28;20059;-70
2022/01/15 09:05:24;;;;;;;;;;;1.10;99.90;;;;;;4985598;28;20147;-70
2022/01/15 09:07:54;;;;;;;;;;;1.20;99.90;;;;;;4985113;28;20149;-70
2022/01/15 09:10:23;;;;;;;;;;;1.30;99.90;;;;;;4982833;28;20118;-71
2022/01/15 09:12:50;;;;;;;;;;;1.30;99.90;;;;;;4964960;28;20162;-70
2022/01/15 09:15:17;;;;;;;;;;;1.30;99.90;;;;;;4965644;28;20069;-70
2022/01/15 09:17:45;;;;;;;;;;;1.20;99.90;;;;;;4965294;28;20226;-72
2022/01/15 09:20:12;;;;;;;;;;;1.30;99.90;;;;;;4964237;28;20126;-71
2022/01/15 09:22:39;;;;;;;;;;;1.30;99.90;;;;;;4965325;28;20092;-71
2022/01/15 09:25:07;;;;;;;;;;;1.40;99.90;;;;;;4965375;28;20073;-71
2022/01/15 09:30:20;;;;;;;;;;;1.40;99.90;;;;;;4964934;28;20255;-70
2022/01/15 09:32:48;;;;;;;;;;;1.40;99.90;;;;;;4965439;28;20059;-71
2022/01/15 09:35:15;;;;;;;;;;;1.40;99.90;;;;;;4964925;28;20255;-71
2022/01/15 09:37:43;;;;;;;;;;;1.40;99.90;;;;;;4965132;28;20084;-71
2022/01/15 09:40:11;;;;;;;;;;;1.50;99.90;;;;;;4964288;28;20061;-71
2022/01/15 09:42:40;;;;;;;;;;;1.50;99.90;;;;;;4966192;28;21163;-70
2022/01/15 09:45:08;;;;;;;;;;;1.50;99.90;;;;;;4964987;28;20081;-71
2022/01/15 09:47:36;;;;;;;;;;;1.60;99.90;;;;;;4964948;28;20052;-70
2022/01/15 09:50:04;;;;;;;;;;;1.60;99.90;;;;;;4963575;28;20077;-70
2022/01/15 09:52:31;;;;;;;;;;;1.60;99.90;;;;;;4965172;28;20140;-71
2022/01/15 09:54:59;;;;;;;;;;;1.60;99.90;;;;;;4964150;28;20101;-71
2022/01/15 09:57:26;;;;;;;;;;;1.70;99.90;;;;;;4964547;28;21040;-68
2022/01/15 09:59:55;;;;;;;;;;;1.70;99.90;;;;;;4969132;28;21147;-70
2022/01/15 10:02:22;;;;;;;;;;;1.80;99.90;;;;;;4983951;28;20069;-71
2022/01/15 10:04:49;;;;;;;;;;;1.70;99.90;;;;;;4984962;28;20072;-72
2022/01/15 10:07:17;;;;;;;;;;;1.80;99.90;;;;;;4984561;28;20059;-72
2022/01/15 10:09:45;;;;;;;;;;;1.80;99.90;;;;;;4983991;28;20133;-73
2022/01/15 10:12:12;;;;;;;;;;;1.90;99.90;;;;;;4967756;28;21146;-72
2022/01/15 10:14:41;;;;;;;;;;;1.90;99.90;;;;;;4964622;28;20066;-71
2022/01/15 10:17:22;;;;;;;;;;;1.90;99.90;;;;;;4964502;28;20060;-70
2022/01/15 10:19:52;;;;;;;;;;;2.00;99.90;;;;;;4957167;28;20060;-69
2022/01/15 10:22:19;;;;;;;;;;;2.00;99.90;;;;;;4966165;28;21062;-69
2022/01/15 10:24:51;;;;;;;;;;;1.90;99.90;;;;;;4964974;28;21126;-68
2022/01/15 10:27:22;;;;;;;;;;;1.90;99.90;;;;;;4964859;28;20068;-69
2022/01/15 10:29:50;;;;;;;;;;;1.90;99.90;;;;;;4965175;28;20108;-69
2022/01/15 10:32:17;;;;;;;;;;;1.80;99.90;;;;;;4965892;28;20066;-72
2022/01/15 10:34:45;;;;;;;;;;;1.90;99.90;;;;;;4965361;28;20176;-72
2022/01/15 10:37:15;;;;;;;;;;;1.90;99.90;;;;;;4965927;28;20059;-72
2022/01/15 10:39:53;;;;;;;;;;;1.80;99.90;;;;;;4962780;28;20075;-70
2022/01/15 10:42:23;;;;;;;;;;;1.70;99.90;;;;;;4963810;28;21067;-71
2022/01/15 10:44:50;;;;;;;;;;;1.80;99.90;;;;;;4963475;28;20076;-71
2022/01/15 10:47:18;;;;;;;;;;;1.90;99.90;;;;;;4963701;28;20126;-73
2022/01/15 10:49:46;;;;;;;;;;;1.90;99.90;;;;;;4962569;28;20051;-72
2022/01/15 10:52:17;;;;;;;;;;;1.90;99.90;;;;;;4963875;28;20092;-71
2022/01/15 10:54:52;;;;;;;;;;;2.00;99.90;;;;;;4963178;28;21153;-71
2022/01/15 10:57:19;;;;;;;;;;;2.10;99.90;;;;;;4964085;28;20106;-69
2022/01/15 10:59:55;;;;;;;;;;;2.20;99.90;;;;;;4962417;28;21127;-69
2022/01/15 11:02:23;;;;;;;;;;;2.30;99.90;;;;;;4964294;28;20064;-69
2022/01/15 11:04:50;;;;;;;;;;;2.40;99.90;;;;;;4963491;28;20069;-70
2022/01/15 11:07:19;;;;;;;;;;;2.30;99.90;;;;;;4964032;28;21082;-70
2022/01/15 11:09:47;;;;;;;;;;;2.40;99.90;;;;;;4962763;28;20150;-69
2022/01/15 11:12:14;;;;;;;;;;;2.40;99.90;;;;;;4980643;28;20178;-69
2022/01/15 11:14:41;;;;;;;;;;;2.30;99.90;;;;;;4983298;28;20059;-69
2022/01/15 11:17:09;;;;;;;;;;;2.30;99.90;;;;;;4983361;28;20110;-69
2022/01/15 11:19:36;;;;;;;;;;;2.20;99.90;;;;;;4982387;28;20163;-69
2022/01/15 11:22:04;;;;;;;;;;;2.20;99.90;;;;;;4983351;28;20062;-69
2022/01/15 11:24:33;;;;;;;;;;;2.20;99.90;;;;;;4982961;28;20088;-69
2022/01/15 11:27:00;;;;;;;;;;;2.20;99.90;;;;;;4982291;28;20068;-69
2022/01/15 11:29:28;;;;;;;;;;;2.20;99.90;;;;;;4982233;28;20058;-70
2022/01/15 11:31:57;;;;;;;;;;;2.20;99.90;;;;;;4982992;28;20086;-70
2022/01/15 11:34:24;;;;;;;;;;;2.30;99.90;;;;;;4979002;28;20099;-68
2022/01/15 11:36:52;;;;;;;;;;;2.30;99.90;;;;;;4979510;28;20068;-70
2022/01/15 11:39:21;;;;;;;;;;;2.40;99.90;;;;;;4976103;28;20068;-70
2022/01/15 11:41:53;;;;;;;;;;;2.50;99.90;;;;;;4977147;28;21112;-71
2022/01/15 11:44:38;;;;;;;;;;;2.40;99.90;;;;;;4984437;28;20060;-70
2022/01/15 11:47:15;;;;;;;;;;;2.50;99.90;;;;;;4984041;28;20061;-70
2022/01/15 11:49:44;;;;;;;;;;;2.50;99.90;;;;;;4984223;28;21144;-70
2022/01/15 11:52:31;;;;;;;;;;;2.50;99.90;;;;;;4984486;28;20052;-71
2022/01/15 11:55:25;;;;;;;;;;;2.60;99.90;;;;;;4984807;28;20074;-70
2022/01/15 11:57:56;;;;;;;;;;;2.50;99.90;;;;;;4984944;28;20199;-70
2022/01/15 12:00:26;;;;;;;;;;;2.60;99.90;;;;;;4985231;28;20082;-71
2022/01/15 12:03:03;;;;;;;;;;;2.60;99.90;;;;;;4988213;28;20067;-71
2022/01/15 12:05:31;;;;;;;;;;;2.60;99.90;;;;;;4981234;28;20069;-71
2022/01/15 12:08:18;;;;;;;;;;;2.70;99.90;;;;;;4984217;28;20170;-72
2022/01/15 12:10:46;;;;;;;;;;;2.80;99.90;;;;;;4976762;28;20077;-72
2022/01/15 12:13:18;;;;;;;;;;;2.70;99.90;;;;;;4973280;28;20069;-71
2022/01/15 12:15:45;;;;;;;;;;;2.70;99.90;;;;;;4998249;28;20076;-72
2022/01/15 12:18:16;;;;;;;;;;;2.70;99.90;;;;;;4966324;28;20069;-71
2022/01/15 12:20:43;;;;;;;;;;;2.70;99.90;;;;;;4964873;28;20068;-71
2022/01/15 12:23:28;;;;;;;;;;;2.60;99.90;;;;;;4965976;28;20163;-71
2022/01/15 12:25:55;;;;;;;;;;;2.60;99.90;;;;;;4966151;28;20159;-71
2022/01/15 12:28:27;;;;;;;;;;;2.70;99.90;;;;;;4967514;28;21095;-72
2022/01/15 12:30:57;;;;;;;;;;;2.70;99.90;;;;;;4981759;28;20077;-72
2022/01/15 12:33:24;;;;;;;;;;;2.70;99.90;;;;;;4981611;28;21053;-71
2022/01/15 12:35:53;;;;;;;;;;;2.70;99.90;;;;;;4978868;28;20077;-71
2022/01/15 12:38:25;;;;;;;;;;;2.70;99.90;;;;;;4982095;28;20171;-70
2022/01/15 12:40:53;;;;;;;;;;;2.70;99.90;;;;;;4985424;28;20067;-71
2022/01/15 12:43:23;;;;;;;;;;;2.60;99.90;;;;;;4985436;28;20068;-71
2022/01/15 12:45:53;;;;;;;;;;;2.60;99.90;;;;;;4984415;28;20133;-71
2022/01/15 12:48:20;;;;;;;;;;;2.60;99.90;;;;;;4985337;28;21105;-71
2022/01/15 12:50:48;;;;;;;;;;;2.50;99.90;;;;;;4982827;28;20085;-71
2022/01/15 12:53:15;;;;;;;;;;;2.50;99.90;;;;;;4980679;28;21155;-72
2022/01/15 12:55:43;;;;;;;;;;;2.50;99.90;;;;;;4986287;28;20087;-71
2022/01/15 12:58:11;;;;;;;;;;;2.60;99.90;;;;;;4987999;28;20060;-72
2022/01/15 13:00:39;;;;;;;;;;;2.60;99.90;;;;;;4986800;28;20161;-73
2022/01/15 13:03:09;;;;;;;;;;;2.70;99.90;;;;;;4987660;28;20068;-71
2022/01/15 13:05:38;;;;;;;;;;;2.90;99.90;;;;;;4987461;28;20060;-71
2022/01/15 13:08:07;;;;;;;;;;;2.70;99.90;;;;;;4987261;28;21205;-71
2022/01/15 13:10:35;;;;;;;;;;;2.80;99.90;;;;;;4986783;28;21197;-71
2022/01/15 13:13:02;;;;;;;;;;;2.80;99.90;;;;;;4987788;28;21136;-70
2022/01/15 13:15:30;;;;;;;;;;;2.80;99.90;;;;;;4986921;28;20055;-70
2022/01/15 13:17:57;;;;;;;;;;;2.70;99.90;;;;;;4987218;28;20165;-71
2022/01/15 13:20:27;;;;;;;;;;;2.70;99.90;;;;;;4986257;28;20064;-71
2022/01/15 13:22:55;;;;;;;;;;;2.70;99.90;;;;;;4987439;28;20070;-70
2022/01/15 13:25:22;;;;;;;;;;;2.60;99.90;;;;;;4987332;28;21066;-69
2022/01/15 13:27:49;;;;;;;;;;;2.60;99.90;;;;;;4986340;28;20051;-71
2022/01/15 13:30:16;;;;;;;;;;;2.60;99.90;;;;;;4986338;28;20061;-70
2022/01/15 13:32:51;;;;;;;;;;;2.60;99.90;;;;;;4986951;28;20060;-71
2022/01/15 13:35:19;;;;;;;;;;;2.60;99.90;;;;;;4987071;28;21109;-70
2022/01/15 13:37:53;;;;;;;;;;;2.50;99.90;;;;;;4986305;28;20519;-72
2022/01/15 13:40:37;;;;;;;;;;;2.60;99.90;;;;;;4986036;28;20060;-71
2022/01/15 13:43:06;;;;;;;;;;;2.50;99.90;;;;;;4986821;28;20068;-70
2022/01/15 13:45:34;;;;;;;;;;;2.60;99.90;;;;;;4986443;28;20052;-69
2022/01/15 13:48:08;;;;;;;;;;;2.60;99.90;;;;;;4986021;28;20059;-69
2022/01/15 13:53:32;;;;;;;;;;;2.50;99.90;;;;;;4968917;28;20082;-70
2022/01/15 13:56:10;;;;;;;;;;;2.50;99.90;;;;;;4970598;28;21207;-67
2022/01/15 13:58:38;;;;;;;;;;;2.60;99.90;;;;;;4973332;28;21125;-67
2022/01/15 14:01:15;;;;;;;;;;;2.60;99.90;;;;;;4976597;28;21289;-69
2022/01/15 14:03:43;;;;;;;;;;;2.60;99.90;;;;;;4967466;28;20058;-70
2022/01/15 14:06:10;;;;;;;;;;;2.70;99.90;;;;;;4979689;28;21284;-71
2022/01/15 14:08:39;;;;;;;;;;;2.70;99.90;;;;;;4971298;28;20155;-71
2022/01/15 14:11:10;;;;;;;;;;;2.70;99.90;;;;;;4971797;28;20069;-71
2022/01/15 14:13:37;;;;;;;;;;;2.80;99.90;;;;;;4984002;28;20150;-71
2022/01/15 14:16:18;;;;;;;;;;;2.70;99.90;;;;;;4984474;28;20072;-71
2022/01/15 14:18:47;;;;;;;;;;;2.70;99.90;;;;;;4983675;28;20060;-69
2022/01/15 14:21:38;;;;;;;;;;;2.70;99.90;;;;;;4984193;28;21086;-72
2022/01/15 14:24:16;;;;;;;;;;;2.60;99.90;;;;;;4983766;28;20051;-72
2022/01/15 14:26:48;;;;;;;;;;;2.70;99.90;;;;;;4982072;28;20171;-71
2022/01/15 14:29:15;;;;;;;;;;;2.60;99.90;;;;;;4975474;28;20167;-71
2022/01/15 14:31:43;;;;;;;;;;;2.70;99.90;;;;;;4976481;28;20067;-71
2022/01/15 14:34:10;;;;;;;;;;;2.70;99.90;;;;;;4983932;28;20279;-72
2022/01/15 14:36:37;;;;;;;;;;;2.70;99.90;;;;;;4982114;28;20077;-71
2022/01/15 14:39:05;;;;;;;;;;;2.70;99.90;;;;;;4981149;28;20066;-73
2022/01/15 14:41:34;;;;;;;;;;;2.70;99.90;;;;;;4981678;28;20093;-72
2022/01/15 14:44:01;;;;;;;;;;;2.60;99.90;;;;;;4978307;28;20060;-72
2022/01/15 14:46:28;;;;;;;;;;;2.60;99.90;;;;;;4984001;28;21178;-73
2022/01/15 14:48:56;;;;;;;;;;;2.60;99.90;;;;;;4983123;28;20182;-71
2022/01/15 14:51:23;;;;;;;;;;;2.60;99.90;;;;;;4964403;28;20060;-72